SBCT/CWB METAR and TAF weather

Enter ICAO airport designator
Station Type Date Time Source
SBCT METAR 2021/01/16 02:00 UTC NOAA

SBCT 160200Z 08004KT 9999 BKN008 19/19 Q1016


Station Type Date Time Source
SBCT Decoded METAR 2021/01/16 02:00 UTC NOAA

Curitiba Aeroporto , Brazil (SBCT) 25-31S 049-10W 908M
Jan 15, 2021 - 09:00 PM EST / 2021.01.16 0200 UTC
Wind: from the E (080 degrees) at 5 MPH (4 KT):0
Visibility: greater than 7 mile(s):0
Sky conditions: mostly cloudy
Temperature: 66 F (19 C)
Dew Point: 66 F (19 C)
Relative Humidity: 100%
Pressure (altimeter): 30.00 in. Hg (1016 hPa)
ob: SBCT 160200Z 08004KT 9999 BKN008 19/19 Q1016
cycle: 2

Station Type Date Time Source
SBCT TAF 2021/01/16 00:00 UTC NOAA

TAF SBCT 152100Z 1600/1624 06005KT 4000 BR BKN002 BKN012 TN18/1608Z TX24/1616Z
BECMG 1606/1608 35008KT 9999 BKN011
BECMG 1608/1610 9999 SCT046
BECMG 1612/1614 02006KT 9000 RA SCT025 FEW032TCU PROB40 1615/1618 04008KT 7000 TSRA SCT025 FEW038CB
BECMG 1621/1623 8000 DZ FEW007 SCT028
RMK PAY

Example: see airport list